Time;durP1;ratioP1;P1;durP2;ratioP2;P2;SDS_P1;SDS_P2;PMS_P1;PMS_P2;Temp;Humidity;BMP_temperature;BMP_pressure;BME280_temperature;BME280_humidity;BME280_pressure;Samples;Min_cycle;Max_cycle;Signal;HPM_P1;HPM_P2
2024/01/18 00:01:51;;;;;;;1.70;1.60;;;0.10;98.20;;;;;;4965364;28;20492;-75
2024/01/18 00:04:18;;;;;;;1.70;1.60;;;0.10;98.20;;;;;;4984642;28;20520;-73
2024/01/18 00:06:45;;;;;;;1.60;1.50;;;0.10;98.20;;;;;;4958244;28;21039;-73
2024/01/18 00:09:11;;;;;;;1.70;1.60;;;0.00;98.20;;;;;;4973857;28;20466;-73
2024/01/18 00:11:38;;;;;;;1.80;1.60;;;0.00;98.20;;;;;;4963751;28;20481;-74
2024/01/18 00:14:06;;;;;;;1.70;1.60;;;0.00;98.20;;;;;;4980218;28;20462;-73
2024/01/18 00:16:34;;;;;;;1.87;1.77;;;0.00;98.20;;;;;;4964224;28;20481;-73
2024/01/18 00:19:01;;;;;;;1.67;1.50;;;0.00;98.20;;;;;;4970192;28;20956;-75
2024/01/18 00:21:28;;;;;;;1.63;1.50;;;0.00;98.20;;;;;;4963924;28;20487;-76
2024/01/18 00:23:54;;;;;;;1.60;1.50;;;0.00;98.20;;;;;;4972707;28;20510;-74
2024/01/18 00:26:21;;;;;;;1.70;1.60;;;0.00;98.20;;;;;;4954343;28;20478;-75
2024/01/18 00:28:48;;;;;;;2.00;1.90;;;0.00;98.20;;;;;;4967661;28;20466;-75
2024/01/18 00:31:16;;;;;;;1.80;1.70;;;0.00;98.20;;;;;;4953952;28;20470;-75
2024/01/18 00:33:43;;;;;;;1.63;1.50;;;-0.10;98.20;;;;;;4972015;28;20476;-75
2024/01/18 00:36:11;;;;;;;1.60;1.50;;;0.00;98.20;;;;;;4963256;28;20496;-75
2024/01/18 00:38:37;;;;;;;1.70;1.60;;;0.00;98.20;;;;;;4968583;28;20521;-75
2024/01/18 00:41:04;;;;;;;1.60;1.50;;;0.00;98.20;;;;;;4966803;28;21011;-75
2024/01/18 00:43:31;;;;;;;1.70;1.60;;;0.00;98.20;;;;;;4963231;28;20472;-75
2024/01/18 00:46:03;;;;;;;1.70;1.60;;;0.00;98.20;;;;;;4958444;28;20469;-74
2024/01/18 00:48:31;;;;;;;1.70;1.60;;;0.00;98.20;;;;;;4981035;28;20601;-76
2024/01/18 00:50:58;;;;;;;1.70;1.60;;;0.00;98.20;;;;;;4959877;28;20521;-75
2024/01/18 00:53:25;;;;;;;1.70;1.60;;;0.00;98.20;;;;;;4978458;28;20835;-75
2024/01/18 00:55:52;;;;;;;1.60;1.50;;;0.00;98.20;;;;;;4961182;28;20842;-75
2024/01/18 00:58:19;;;;;;;1.63;1.50;;;0.00;98.20;;;;;;4967634;28;20474;-75
2024/01/18 01:00:47;;;;;;;1.60;1.50;;;0.00;98.20;;;;;;4972943;28;20492;-75
2024/01/18 01:03:14;;;;;;;1.60;1.50;;;0.00;98.20;;;;;;4973421;28;20506;-75
2024/01/18 01:05:42;;;;;;;1.70;1.57;;;0.00;98.20;;;;;;4967785;28;20472;-75
2024/01/18 01:08:08;;;;;;;1.70;1.60;;;0.00;98.20;;;;;;4971411;28;20490;-75
2024/01/18 01:10:35;;;;;;;1.90;1.80;;;0.00;98.20;;;;;;4968054;28;20490;-73
2024/01/18 01:13:02;;;;;;;1.80;1.70;;;0.00;98.20;;;;;;4973566;28;20504;-75
2024/01/18 01:15:29;;;;;;;1.63;1.50;;;0.00;98.20;;;;;;4971233;28;20839;-75
2024/01/18 01:17:56;;;;;;;1.70;1.60;;;0.00;98.20;;;;;;4964268;28;20513;-75
2024/01/18 01:20:23;;;;;;;1.70;1.60;;;0.00;98.20;;;;;;4974073;28;20592;-75
2024/01/18 01:22:51;;;;;;;1.80;1.70;;;-0.10;98.20;;;;;;4967657;28;20552;-75
2024/01/18 01:25:18;;;;;;;1.70;1.60;;;-0.10;98.20;;;;;;4976125;28;20480;-75
2024/01/18 01:27:45;;;;;;;1.70;1.60;;;-0.10;98.20;;;;;;4968667;28;20482;-75
2024/01/18 01:30:12;;;;;;;1.70;1.60;;;-0.10;98.20;;;;;;4965928;28;20480;-73
2024/01/18 01:32:39;;;;;;;1.67;1.50;;;-0.10;98.20;;;;;;4963230;28;20485;-75
2024/01/18 01:35:06;;;;;;;1.70;1.60;;;-0.10;98.20;;;;;;4967828;28;20473;-73
2024/01/18 01:37:33;;;;;;;1.60;1.50;;;-0.10;98.20;;;;;;4969583;28;20488;-74
2024/01/18 01:40:01;;;;;;;1.70;1.60;;;-0.10;98.20;;;;;;4967570;28;20498;-72
2024/01/18 01:42:27;;;;;;;1.70;1.60;;;-0.10;98.20;;;;;;4970646;28;20493;-72
2024/01/18 01:44:54;;;;;;;1.70;1.60;;;-0.10;98.20;;;;;;4971525;28;20462;-73
2024/01/18 01:47:21;;;;;;;2.43;2.23;;;-0.10;98.20;;;;;;4968241;28;21022;-73
2024/01/18 01:49:48;;;;;;;1.60;1.50;;;0.00;98.20;;;;;;4975740;28;20466;-73
2024/01/18 01:52:16;;;;;;;1.70;1.60;;;0.00;98.20;;;;;;4957924;28;20486;-74
2024/01/18 01:54:46;;;;;;;1.67;1.50;;;0.00;98.20;;;;;;4972399;28;20485;-76
2024/01/18 01:57:16;;;;;;;1.70;1.60;;;0.00;98.20;;;;;;4967761;28;20481;-75
2024/01/18 01:59:43;;;;;;;1.70;1.60;;;0.00;98.20;;;;;;4969378;28;20465;-75
2024/01/18 02:02:12;;;;;;;1.70;1.50;;;0.00;98.20;;;;;;4974264;28;21109;-74
2024/01/18 02:04:39;;;;;;;1.70;1.60;;;0.00;98.20;;;;;;4981207;28;20469;-74
2024/01/18 02:07:08;;;;;;;1.90;1.80;;;0.00;98.20;;;;;;4968357;28;20485;-74
2024/01/18 02:09:35;;;;;;;1.67;1.50;;;0.00;98.20;;;;;;4978114;28;20458;-75
2024/01/18 02:12:03;;;;;;;1.70;1.60;;;0.00;98.20;;;;;;4963247;28;20502;-74
2024/01/18 02:14:31;;;;;;;1.70;1.60;;;0.00;98.20;;;;;;4972449;28;20716;-74
2024/01/18 02:16:58;;;;;;;1.70;1.50;;;0.00;98.20;;;;;;4972177;28;20487;-74
2024/01/18 02:19:25;;;;;;;1.67;1.50;;;0.00;98.20;;;;;;4977582;28;20956;-74
2024/01/18 02:21:52;;;;;;;1.60;1.50;;;0.00;98.20;;;;;;4970149;28;20563;-74
2024/01/18 02:24:22;;;;;;;1.70;1.60;;;0.00;98.20;;;;;;4980187;28;20473;-74
2024/01/18 02:26:50;;;;;;;1.67;1.57;;;0.00;98.20;;;;;;4969753;28;20501;-74
2024/01/18 02:29:17;;;;;;;1.80;1.70;;;0.00;98.20;;;;;;4980283;28;20951;-74
2024/01/18 02:31:43;;;;;;;1.63;1.50;;;0.10;98.20;;;;;;4965394;28;20485;-72
2024/01/18 02:34:12;;;;;;;1.70;1.60;;;0.00;98.20;;;;;;4975651;28;20469;-72
2024/01/18 02:36:39;;;;;;;1.70;1.60;;;0.00;98.20;;;;;;4969489;28;20484;-71
2024/01/18 02:39:06;;;;;;;1.97;1.87;;;0.10;98.20;;;;;;4975139;28;20480;-73
2024/01/18 02:41:33;;;;;;;1.63;1.50;;;0.00;98.20;;;;;;4976675;28;20527;-73
2024/01/18 02:44:02;;;;;;;1.60;1.50;;;0.00;98.20;;;;;;4981093;28;20840;-73
2024/01/18 02:46:31;;;;;;;1.77;1.67;;;0.10;98.20;;;;;;4969008;28;20885;-73
2024/01/18 02:48:58;;;;;;;1.67;1.53;;;0.00;98.20;;;;;;4981692;28;20492;-74
2024/01/18 02:51:25;;;;;;;1.67;1.57;;;0.00;98.20;;;;;;4964997;28;21053;-73
2024/01/18 02:53:51;;;;;;;1.70;1.60;;;0.00;98.20;;;;;;4982343;28;20879;-73
2024/01/18 02:56:19;;;;;;;1.60;1.50;;;0.00;98.20;;;;;;4967554;28;20487;-73
2024/01/18 02:58:45;;;;;;;1.70;1.60;;;0.00;98.20;;;;;;4968048;28;20552;-73
2024/01/18 03:01:14;;;;;;;1.70;1.57;;;0.00;98.20;;;;;;4966325;28;20494;-73
2024/01/18 03:03:40;;;;;;;1.70;1.60;;;0.00;98.20;;;;;;4980131;28;20557;-73
2024/01/18 03:06:07;;;;;;;1.70;1.57;;;0.00;98.20;;;;;;4962233;28;20485;-74
2024/01/18 03:08:36;;;;;;;1.60;1.50;;;0.10;98.20;;;;;;4962741;28;20470;-75
2024/01/18 03:11:03;;;;;;;1.70;1.60;;;0.10;98.20;;;;;;4957393;28;20489;-74
2024/01/18 03:13:31;;;;;;;1.77;1.67;;;0.10;98.20;;;;;;4963485;28;20472;-73
2024/01/18 03:15:58;;;;;;;1.60;1.50;;;0.10;98.20;;;;;;4957842;28;20470;-73
2024/01/18 03:18:26;;;;;;;1.90;1.80;;;0.10;98.20;;;;;;4977848;28;20479;-73
2024/01/18 03:20:52;;;;;;;1.67;1.50;;;0.10;98.20;;;;;;4958571;28;20853;-74
2024/01/18 03:23:19;;;;;;;1.67;1.57;;;0.10;98.20;;;;;;4983326;28;20463;-73
2024/01/18 03:25:46;;;;;;;1.60;1.50;;;0.10;98.20;;;;;;4969108;28;20468;-74
2024/01/18 03:28:13;;;;;;;1.63;1.50;;;0.00;98.20;;;;;;4937861;29;20486;-73
2024/01/18 03:30:40;;;;;;;1.93;1.83;;;0.00;98.20;;;;;;4967536;28;20489;-73
2024/01/18 03:33:07;;;;;;;1.73;1.63;;;0.00;98.20;;;;;;4974363;28;20543;-73
2024/01/18 03:35:35;;;;;;;1.67;1.50;;;0.00;98.20;;;;;;4969901;28;20473;-73
2024/01/18 03:38:02;;;;;;;1.70;1.50;;;0.00;98.20;;;;;;4973697;28;20493;-73
2024/01/18 03:40:29;;;;;;;1.70;1.60;;;0.00;98.20;;;;;;4968679;28;20485;-73
2024/01/18 03:42:55;;;;;;;1.73;1.63;;;0.00;98.20;;;;;;4974309;28;20483;-75
2024/01/18 03:45:22;;;;;;;1.60;1.50;;;0.00;98.20;;;;;;4970140;28;20992;-73
2024/01/18 03:47:49;;;;;;;1.70;1.60;;;0.00;98.20;;;;;;4972909;28;20488;-73
2024/01/18 03:50:16;;;;;;;1.90;1.80;;;0.00;98.20;;;;;;4968046;28;20500;-73
2024/01/18 03:52:44;;;;;;;1.60;1.50;;;0.00;98.20;;;;;;4961600;28;20517;-74
2024/01/18 03:55:11;;;;;;;1.77;1.67;;;0.00;98.20;;;;;;4970830;28;20470;-73
2024/01/18 03:57:39;;;;;;;1.70;1.60;;;0.00;98.20;;;;;;4961011;28;20482;-73
2024/01/18 04:00:07;;;;;;;1.80;1.70;;;0.00;98.20;;;;;;4968648;28;20561;-73
2024/01/18 04:02:34;;;;;;;2.77;2.57;;;-0.10;98.20;;;;;;4954955;28;20484;-73
2024/01/18 04:05:01;;;;;;;1.60;1.50;;;-0.10;98.20;;;;;;4967689;28;20852;-73
2024/01/18 04:07:27;;;;;;;1.80;1.70;;;-0.10;98.20;;;;;;4971183;28;20488;-73
2024/01/18 04:09:56;;;;;;;1.83;1.73;;;-0.10;98.20;;;;;;4969277;28;20488;-73
2024/01/18 04:12:23;;;;;;;1.67;1.57;;;-0.10;98.20;;;;;;4964664;28;20636;-73
2024/01/18 04:14:50;;;;;;;1.70;1.60;;;-0.10;98.20;;;;;;4965901;28;20474;-73
2024/01/18 04:17:17;;;;;;;1.70;1.60;;;-0.10;98.20;;;;;;4962258;28;20485;-73
2024/01/18 04:19:44;;;;;;;1.70;1.60;;;-0.20;98.20;;;;;;4964500;28;20462;-73
2024/01/18 04:22:10;;;;;;;4.80;4.50;;;-0.10;98.20;;;;;;4958705;28;20485;-73
2024/01/18 04:24:37;;;;;;;1.67;1.57;;;-0.10;98.20;;;;;;4969850;28;21116;-74
2024/01/18 04:27:06;;;;;;;1.70;1.53;;;-0.10;98.20;;;;;;4966555;28;20499;-73
2024/01/18 04:29:32;;;;;;;1.70;1.60;;;-0.10;98.20;;;;;;4973195;28;20472;-73
2024/01/18 04:31:59;;;;;;;1.77;1.67;;;-0.10;98.20;;;;;;4958048;28;20485;-73
2024/01/18 04:34:26;;;;;;;1.70;1.60;;;-0.10;98.20;;;;;;4977304;28;20552;-74
2024/01/18 04:36:53;;;;;;;1.60;1.50;;;0.00;98.20;;;;;;4960193;28;20486;-73
2024/01/18 04:39:20;;;;;;;1.70;1.60;;;0.00;98.20;;;;;;4978725;28;20469;-73
2024/01/18 04:41:47;;;;;;;1.70;1.50;;;0.00;98.20;;;;;;4957396;28;20474;-74
2024/01/18 04:44:15;;;;;;;1.60;1.50;;;0.00;98.20;;;;;;4983189;28;20525;-73
2024/01/18 04:46:42;;;;;;;1.67;1.57;;;0.00;98.20;;;;;;4963489;28;20481;-74
2024/01/18 04:49:09;;;;;;;1.70;1.60;;;0.00;98.20;;;;;;4975149;28;20468;-73
2024/01/18 04:51:36;;;;;;;1.70;1.60;;;0.00;98.20;;;;;;4962339;28;20480;-73
2024/01/18 04:54:03;;;;;;;1.70;1.60;;;0.00;98.20;;;;;;4978296;28;20476;-73
2024/01/18 04:56:30;;;;;;;1.70;1.60;;;0.00;98.20;;;;;;4964165;28;20476;-73
2024/01/18 04:58:57;;;;;;;1.80;1.70;;;0.00;98.20;;;;;;4966702;28;20549;-73
2024/01/18 05:01:25;;;;;;;1.80;1.70;;;0.00;98.20;;;;;;4960589;28;20855;-73
2024/01/18 05:03:52;;;;;;;1.67;1.57;;;0.00;98.20;;;;;;4971055;28;20466;-74
2024/01/18 05:06:19;;;;;;;1.80;1.70;;;0.00;98.20;;;;;;4965541;28;20570;-73
2024/01/18 05:08:47;;;;;;;1.67;1.50;;;0.00;98.20;;;;;;4966020;28;20592;-74
2024/01/18 05:11:14;;;;;;;1.63;1.50;;;0.00;98.20;;;;;;4960154;28;20477;-73
2024/01/18 05:13:40;;;;;;;1.60;1.43;;;0.10;98.20;;;;;;4974490;28;20546;-73
2024/01/18 05:16:07;;;;;;;1.63;1.50;;;0.00;98.20;;;;;;4958314;28;20482;-73
2024/01/18 05:18:36;;;;;;;1.67;1.53;;;0.10;98.20;;;;;;4964746;28;21094;-73
2024/01/18 05:21:03;;;;;;;1.87;1.77;;;0.00;98.20;;;;;;4958998;28;20482;-73
2024/01/18 05:23:29;;;;;;;1.80;1.70;;;0.00;98.20;;;;;;4973684;28;20467;-73
2024/01/18 05:25:56;;;;;;;1.60;1.50;;;0.00;98.20;;;;;;4956855;28;20470;-73
2024/01/18 05:28:23;;;;;;;1.80;1.70;;;0.00;98.20;;;;;;4970301;28;20466;-73
2024/01/18 05:30:51;;;;;;;1.70;1.60;;;0.00;98.20;;;;;;4951591;28;20492;-74
2024/01/18 05:33:18;;;;;;;1.70;1.60;;;0.00;98.20;;;;;;4963123;28;20486;-73
2024/01/18 05:35:46;;;;;;;1.80;1.70;;;0.00;98.20;;;;;;4991305;23;20903;-75
2024/01/18 05:38:15;;;;;;;1.70;1.60;;;0.00;98.20;;;;;;4931145;28;20485;-77
2024/01/18 05:40:43;;;;;;;1.80;1.70;;;0.00;98.20;;;;;;4964389;28;20477;-77
2024/01/18 05:43:10;;;;;;;1.87;1.77;;;0.00;98.20;;;;;;4949611;28;20475;-77
2024/01/18 05:45:36;;;;;;;1.73;1.63;;;0.00;98.20;;;;;;4960410;28;20482;-80
2024/01/18 05:48:03;;;;;;;1.70;1.60;;;0.00;98.20;;;;;;4933545;28;20895;-78
2024/01/18 05:50:30;;;;;;;1.70;1.60;;;0.00;98.20;;;;;;4935604;28;20466;-78
2024/01/18 05:52:58;;;;;;;1.67;1.50;;;0.00;98.20;;;;;;4938746;28;20485;-78
2024/01/18 05:55:25;;;;;;;1.60;1.50;;;0.00;98.20;;;;;;4947489;28;20478;-80
2024/01/18 05:57:52;;;;;;;1.60;1.50;;;0.00;98.20;;;;;;4938974;28;20491;-77
2024/01/18 06:00:19;;;;;;;1.63;1.50;;;0.00;98.20;;;;;;4939422;29;20951;-78
2024/01/18 06:02:45;;;;;;;1.70;1.50;;;0.00;98.20;;;;;;4934338;28;20599;-77
2024/01/18 06:05:12;;;;;;;1.60;1.50;;;0.00;98.20;;;;;;4946186;28;20470;-77
2024/01/18 06:07:39;;;;;;;1.70;1.60;;;0.00;98.20;;;;;;4936480;28;20491;-77
2024/01/18 06:10:08;;;;;;;1.73;1.63;;;0.00;98.20;;;;;;4946463;28;20463;-78
2024/01/18 06:12:35;;;;;;;1.70;1.60;;;0.00;98.20;;;;;;4940881;28;20475;-77
2024/01/18 06:15:02;;;;;;;1.70;1.60;;;0.00;98.20;;;;;;4940625;29;20556;-78
2024/01/18 06:17:29;;;;;;;1.90;1.80;;;0.00;98.20;;;;;;4940595;28;20499;-76
2024/01/18 06:19:56;;;;;;;1.63;1.50;;;0.00;98.20;;;;;;4945068;28;20466;-79
2024/01/18 06:22:23;;;;;;;1.77;1.67;;;0.00;98.20;;;;;;4939645;28;20570;-81
2024/01/18 06:24:50;;;;;;;1.67;1.57;;;0.00;98.20;;;;;;4941928;29;20475;-78
2024/01/18 06:27:18;;;;;;;1.60;1.50;;;0.00;98.20;;;;;;4933562;28;20492;-77
2024/01/18 06:29:45;;;;;;;1.70;1.60;;;0.00;98.20;;;;;;4940604;29;20949;-78
2024/01/18 06:32:11;;;;;;;1.87;1.77;;;0.00;98.20;;;;;;4931884;28;20543;-76
2024/01/18 06:34:38;;;;;;;1.70;1.50;;;0.00;98.20;;;;;;4941884;29;20478;-76
2024/01/18 06:37:05;;;;;;;1.60;1.50;;;0.00;98.20;;;;;;4936257;28;20570;-76
2024/01/18 06:39:32;;;;;;;1.70;1.60;;;-0.10;98.20;;;;;;4945269;28;20467;-76
2024/01/18 06:41:58;;;;;;;1.97;1.87;;;-0.10;98.20;;;;;;4939691;28;20944;-76
2024/01/18 06:44:26;;;;;;;1.70;1.60;;;-0.10;98.20;;;;;;4940734;29;20990;-76
2024/01/18 06:46:53;;;;;;;1.70;1.60;;;-0.10;98.20;;;;;;4939021;28;20544;-76
2024/01/18 06:49:20;;;;;;;1.70;1.60;;;-0.10;98.20;;;;;;4941305;28;20959;-76
2024/01/18 06:51:47;;;;;;;1.70;1.60;;;-0.10;98.20;;;;;;4935494;28;20494;-76
2024/01/18 06:54:13;;;;;;;1.70;1.60;;;-0.10;98.20;;;;;;4946563;28;20483;-77
2024/01/18 06:56:40;;;;;;;1.67;1.57;;;-0.10;98.20;;;;;;4938550;28;20565;-77
2024/01/18 06:59:07;;;;;;;1.70;1.60;;;-0.10;98.20;;;;;;4949390;29;20844;-76
2024/01/18 07:01:35;;;;;;;1.70;1.50;;;-0.10;98.20;;;;;;4941492;28;20486;-77
2024/01/18 07:04:02;;;;;;;1.63;1.50;;;-0.10;98.20;;;;;;4948119;29;20467;-77
2024/01/18 07:06:29;;;;;;;1.60;1.50;;;-0.10;98.20;;;;;;4943134;28;20483;-77
2024/01/18 07:08:56;;;;;;;1.67;1.50;;;-0.10;98.20;;;;;;4949299;28;20485;-77
2024/01/18 07:11:23;;;;;;;1.97;1.87;;;-0.10;98.20;;;;;;4941915;28;20482;-77
2024/01/18 07:13:49;;;;;;;1.60;1.50;;;-0.10;98.20;;;;;;4950639;29;20490;-77
2024/01/18 07:16:16;;;;;;;1.70;1.60;;;-0.20;98.20;;;;;;4944030;28;20481;-76
2024/01/18 07:18:44;;;;;;;1.63;1.50;;;-0.20;98.20;;;;;;4948896;28;20475;-76
2024/01/18 07:21:11;;;;;;;1.60;1.50;;;-0.20;98.20;;;;;;4937352;28;20856;-78
2024/01/18 07:23:37;;;;;;;1.80;1.70;;;-0.20;98.20;;;;;;4949943;29;20845;-77
2024/01/18 07:26:04;;;;;;;1.60;1.50;;;-0.20;98.20;;;;;;4940345;28;21278;-77
2024/01/18 07:28:31;;;;;;;1.70;1.60;;;-0.20;98.20;;;;;;4947463;28;20765;-77
2024/01/18 07:30:58;;;;;;;1.80;1.70;;;-0.20;98.20;;;;;;4940920;28;20848;-77
2024/01/18 07:33:25;;;;;;;1.77;1.67;;;-0.20;98.20;;;;;;4947956;28;20487;-77
2024/01/18 07:35:53;;;;;;;1.70;1.60;;;-0.20;98.20;;;;;;4932690;28;20500;-77
2024/01/18 07:38:19;;;;;;;1.63;1.50;;;-0.30;98.20;;;;;;4949751;28;20467;-77
2024/01/18 07:40:46;;;;;;;1.70;1.60;;;-0.30;98.20;;;;;;4947728;29;20475;-76
2024/01/18 07:43:14;;;;;;;1.70;1.60;;;-0.30;98.20;;;;;;4945710;28;20503;-76
2024/01/18 07:45:41;;;;;;;1.70;1.60;;;-0.30;98.20;;;;;;4938417;29;20570;-76
2024/01/18 07:48:08;;;;;;;1.73;1.63;;;-0.40;98.20;;;;;;4922566;29;20499;-76
2024/01/18 07:50:34;;;;;;;1.70;1.60;;;-0.40;98.20;;;;;;4946993;29;20513;-75
2024/01/18 07:53:03;;;;;;;1.80;1.70;;;-0.40;98.20;;;;;;4942709;28;20611;-76
2024/01/18 07:55:29;;;;;;;1.63;1.50;;;-0.50;98.20;;;;;;4946864;28;20490;-77
2024/01/18 07:57:56;;;;;;;1.80;1.70;;;-0.50;98.20;;;;;;4937659;28;20495;-76
2024/01/18 08:00:23;;;;;;;1.70;1.60;;;-0.60;98.20;;;;;;4947811;29;20480;-77
2024/01/18 08:02:50;;;;;;;1.70;1.60;;;-0.60;98.20;;;;;;4935680;29;20706;-76
2024/01/18 08:05:17;;;;;;;1.60;1.50;;;-0.60;98.20;;;;;;4952401;28;20471;-76
2024/01/18 08:07:43;;;;;;;3.30;3.07;;;-0.70;98.20;;;;;;4938971;28;20494;-77
2024/01/18 08:10:11;;;;;;;1.60;1.50;;;-0.70;98.20;;;;;;4950171;29;20475;-75
2024/01/18 08:12:38;;;;;;;1.60;1.50;;;-0.80;98.20;;;;;;4940727;28;20973;-75
2024/01/18 08:15:06;;;;;;;1.70;1.50;;;-0.80;98.20;;;;;;4939845;29;20494;-75
2024/01/18 08:17:32;;;;;;;1.70;1.60;;;-0.80;98.20;;;;;;4925678;29;20916;-75
2024/01/18 08:19:59;;;;;;;1.80;1.70;;;-0.80;98.20;;;;;;4947986;29;20473;-75
2024/01/18 08:22:27;;;;;;;1.70;1.60;;;-0.90;98.20;;;;;;4940684;28;20486;-75
2024/01/18 08:24:54;;;;;;;1.70;1.60;;;-0.90;98.20;;;;;;4943276;29;20625;-75
2024/01/18 08:27:22;;;;;;;1.80;1.70;;;-0.90;98.20;;;;;;4940007;28;20516;-75
2024/01/18 08:29:50;;;;;;;1.70;1.60;;;-0.90;98.20;;;;;;4949153;29;20554;-75
2024/01/18 08:32:17;;;;;;;1.87;1.77;;;-0.90;98.20;;;;;;4939623;28;20878;-78
2024/01/18 08:34:44;;;;;;;1.80;1.70;;;-0.90;98.20;;;;;;4942476;29;20500;-75
2024/01/18 08:37:10;;;;;;;1.70;1.60;;;-0.90;98.20;;;;;;4946342;28;20525;-75
2024/01/18 08:39:38;;;;;;;2.00;1.90;;;-1.00;98.20;;;;;;4941436;29;20978;-75
2024/01/18 08:42:05;;;;;;;1.70;1.60;;;-1.00;98.20;;;;;;4939712;28;20479;-75
2024/01/18 08:44:33;;;;;;;1.70;1.60;;;-1.00;98.20;;;;;;4950713;29;20465;-75
2024/01/18 08:47:00;;;;;;;1.70;1.60;;;-0.90;98.20;;;;;;4937035;28;21134;-75
2024/01/18 08:49:29;;;;;;;1.70;1.60;;;-0.90;98.20;;;;;;4944324;29;20975;-74
2024/01/18 08:51:55;;;;;;;1.80;1.70;;;-0.90;98.20;;;;;;4940755;28;20857;-75
2024/01/18 08:54:22;;;;;;;1.70;1.60;;;-0.90;98.20;;;;;;4947801;29;20486;-74
2024/01/18 08:56:49;;;;;;;1.80;1.70;;;-0.90;98.20;;;;;;4936131;28;20498;-75
2024/01/18 08:59:16;;;;;;;1.90;1.80;;;-0.90;98.20;;;;;;4948727;29;20848;-75
2024/01/18 09:01:44;;;;;;;1.70;1.53;;;-0.80;98.20;;;;;;4936234;28;20490;-74
2024/01/18 09:04:10;;;;;;;1.70;1.60;;;-0.80;98.20;;;;;;4947817;29;20473;-75
2024/01/18 09:06:38;;;;;;;1.70;1.60;;;-0.80;98.20;;;;;;4940445;28;20487;-76
2024/01/18 09:09:09;;;;;;;1.90;1.80;;;-0.70;98.20;;;;;;4944299;29;20466;-76
2024/01/18 09:11:36;;;;;;;1.80;1.70;;;-0.70;98.20;;;;;;4936128;28;20482;-76
2024/01/18 09:14:02;;;;;;;5.40;5.00;;;-0.70;98.20;;;;;;4945479;29;20571;-77
2024/01/18 09:16:32;;;;;;;1.70;1.60;;;-0.70;98.20;;;;;;4940876;28;20478;-76
2024/01/18 09:19:00;;;;;;;1.70;1.60;;;-0.70;98.20;;;;;;4944108;29;20821;-77
2024/01/18 09:21:27;;;;;;;1.70;1.60;;;-0.70;98.20;;;;;;4937327;28;21072;-76
2024/01/18 09:23:54;;;;;;;1.60;1.50;;;-0.60;98.20;;;;;;4947845;29;20970;-77
2024/01/18 09:26:21;;;;;;;1.83;1.73;;;-0.60;98.20;;;;;;4940226;28;20494;-76
2024/01/18 09:28:48;;;;;;;1.80;1.70;;;-0.60;98.20;;;;;;4947035;28;20545;-77
2024/01/18 09:31:14;;;;;;;1.80;1.70;;;-0.60;98.20;;;;;;4940786;28;20489;-76
2024/01/18 09:33:41;;;;;;;1.80;1.70;;;-0.50;98.20;;;;;;4949631;29;20491;-76
2024/01/18 09:36:10;;;;;;;1.70;1.60;;;-0.50;98.20;;;;;;4939744;28;20490;-76
2024/01/18 09:38:37;;;;;;;1.80;1.70;;;-0.40;98.20;;;;;;4948028;29;20612;-76
2024/01/18 09:41:07;;;;;;;1.70;1.60;;;-0.40;98.20;;;;;;4932077;28;20554;-76
2024/01/18 09:43:36;;;;;;;1.63;1.50;;;-0.40;98.20;;;;;;4945783;29;20463;-74
2024/01/18 09:46:05;;;;;;;1.70;1.60;;;-0.40;98.20;;;;;;4930499;29;20494;-74
2024/01/18 09:48:32;;;;;;;1.70;1.60;;;-0.40;98.20;;;;;;4930753;29;20463;-76
2024/01/18 09:51:00;;;;;;;2.00;1.90;;;-0.40;98.20;;;;;;4933747;28;20467;-76
2024/01/18 09:53:29;;;;;;;1.70;1.60;;;-0.30;98.20;;;;;;4946322;29;20493;-77
2024/01/18 09:56:00;;;;;;;1.80;1.70;;;-0.30;98.20;;;;;;4937346;28;20502;-75
2024/01/18 09:58:27;;;;;;;1.73;1.63;;;-0.30;98.20;;;;;;4945163;29;20470;-76
2024/01/18 10:00:58;;;;;;;1.67;1.57;;;-0.30;98.20;;;;;;4939734;28;20459;-77
2024/01/18 10:03:25;;;;;;;1.97;1.87;;;-0.30;98.20;;;;;;4948421;29;20463;-76
2024/01/18 10:05:52;;;;;;;4.23;3.93;;;-0.20;98.20;;;;;;4936211;28;20487;-76
2024/01/18 10:08:19;;;;;;;1.70;1.60;;;-0.20;98.20;;;;;;4942708;28;20869;-76
2024/01/18 10:10:47;;;;;;;1.60;1.50;;;-0.20;98.20;;;;;;4939039;29;20479;-75
2024/01/18 10:13:14;;;;;;;1.80;1.70;;;-0.20;98.20;;;;;;4948039;28;20479;-76
2024/01/18 10:15:42;;;;;;;1.77;1.67;;;-0.20;98.20;;;;;;4946138;28;20495;-76
2024/01/18 10:18:09;;;;;;;1.70;1.60;;;-0.10;98.20;;;;;;4938531;28;20490;-76
2024/01/18 10:20:36;;;;;;;1.70;1.60;;;-0.10;98.20;;;;;;4953651;29;20471;-77
2024/01/18 10:23:03;;;;;;;1.70;1.60;;;0.00;98.20;;;;;;4940983;28;20482;-77
2024/01/18 10:25:31;;;;;;;1.80;1.70;;;0.00;98.20;;;;;;4946357;29;20520;-77
2024/01/18 10:27:59;;;;;;;1.63;1.50;;;0.00;98.20;;;;;;4939173;28;20478;-76
2024/01/18 10:30:26;;;;;;;1.80;1.70;;;0.10;98.20;;;;;;4950028;29;20477;-76
2024/01/18 10:32:53;;;;;;;1.70;1.60;;;0.10;98.20;;;;;;4940762;28;20486;-77
2024/01/18 10:35:24;;;;;;;1.70;1.60;;;0.20;98.20;;;;;;4951405;28;20482;-76
2024/01/18 10:38:00;;;;;;;1.70;1.60;;;0.30;98.20;;;;;;4932961;29;20889;-77
2024/01/18 10:40:29;;;;;;;2.63;2.43;;;0.40;98.20;;;;;;4951193;29;20466;-76
2024/01/18 10:42:56;;;;;;;1.80;1.70;;;0.50;98.20;;;;;;4941697;28;21019;-76
2024/01/18 10:45:24;;;;;;;1.60;1.50;;;0.50;98.20;;;;;;4953952;28;20847;-77
2024/01/18 10:47:51;;;;;;;1.80;1.70;;;0.60;98.20;;;;;;4918768;29;20920;-77
2024/01/18 10:50:17;;;;;;;2.67;2.47;;;0.60;98.20;;;;;;4951189;29;20466;-76
2024/01/18 10:52:46;;;;;;;1.73;1.63;;;0.70;98.20;;;;;;4941362;28;20752;-76
2024/01/18 10:55:13;;;;;;;1.63;1.50;;;0.70;98.20;;;;;;4952518;28;20483;-77
2024/01/18 10:57:39;;;;;;;1.80;1.70;;;0.70;98.20;;;;;;4945127;28;20997;-76
2024/01/18 11:00:07;;;;;;;1.63;1.50;;;0.70;98.20;;;;;;4952798;29;20466;-77
2024/01/18 11:02:39;;;;;;;1.70;1.60;;;0.60;98.20;;;;;;4942033;28;20486;-77
2024/01/18 11:05:09;;;;;;;1.63;1.50;;;0.60;98.20;;;;;;4951143;29;20946;-77
2024/01/18 11:07:38;;;;;;;1.70;1.50;;;0.60;98.20;;;;;;4941649;28;20490;-77
2024/01/18 11:10:10;;;;;;;1.70;1.60;;;0.60;98.20;;;;;;4949986;29;20467;-78
2024/01/18 11:12:38;;;;;;;1.83;1.73;;;0.60;98.20;;;;;;4938821;28;20501;-78
2024/01/18 11:15:07;;;;;;;1.70;1.60;;;0.60;98.20;;;;;;4948834;29;20521;-77
2024/01/18 11:17:36;;;;;;;1.70;1.50;;;0.60;98.20;;;;;;4942846;28;20510;-77
2024/01/18 11:20:04;;;;;;;3.07;2.77;;;0.60;98.20;;;;;;4947736;29;20489;-75
2024/01/18 11:22:33;;;;;;;1.80;1.70;;;0.60;98.20;;;;;;4924325;29;20484;-76
2024/01/18 11:25:04;;;;;;;1.63;1.50;;;0.60;98.20;;;;;;4949227;29;20522;-77
2024/01/18 11:27:38;;;;;;;1.70;1.60;;;0.60;98.20;;;;;;4939757;28;20494;-75
2024/01/18 11:30:07;;;;;;;4.13;3.83;;;0.60;98.20;;;;;;4947788;28;20474;-78
2024/01/18 11:32:35;;;;;;;1.70;1.60;;;0.60;98.20;;;;;;4941932;28;20554;-77
2024/01/18 11:35:10;;;;;;;1.70;1.60;;;0.70;98.20;;;;;;4950227;29;20493;-76
2024/01/18 11:37:37;;;;;;;1.67;1.50;;;0.70;98.20;;;;;;4941827;28;20482;-78
2024/01/18 11:40:07;;;;;;;1.80;1.70;;;0.70;98.20;;;;;;4941153;29;20467;-79
2024/01/18 11:42:34;;;;;;;1.80;1.70;;;0.80;98.20;;;;;;4943329;28;20498;-77
2024/01/18 11:45:03;;;;;;;1.80;1.70;;;0.80;98.20;;;;;;4951743;29;20810;-78
2024/01/18 11:47:31;;;;;;;1.67;1.50;;;0.80;98.20;;;;;;4941462;28;20938;-76
2024/01/18 11:50:05;;;;;;;1.70;1.50;;;0.90;98.20;;;;;;4937941;29;20468;-77
2024/01/18 11:52:34;;;;;;;1.70;1.50;;;0.90;98.20;;;;;;4943912;28;20489;-76
2024/01/18 11:55:01;;;;;;;1.60;1.40;;;0.90;98.20;;;;;;4950375;29;20493;-77
2024/01/18 11:57:29;;;;;;;1.70;1.60;;;0.90;98.20;;;;;;4939741;28;20483;-76
2024/01/18 11:59:55;;;;;;;1.70;1.60;;;0.90;98.20;;;;;;4950878;29;20574;-78
2024/01/18 12:02:22;;;;;;;1.60;1.50;;;1.00;98.20;;;;;;4925475;29;20484;-78
2024/01/18 12:04:50;;;;;;;1.70;1.60;;;1.00;98.20;;;;;;4947678;29;20549;-76
2024/01/18 12:07:19;;;;;;;1.70;1.60;;;1.00;98.20;;;;;;4939738;28;20483;-78
2024/01/18 12:09:46;;;;;;;1.70;1.50;;;1.00;98.20;;;;;;4953132;29;20486;-76
2024/01/18 12:12:17;;;;;;;1.63;1.40;;;1.00;98.20;;;;;;4922240;29;20575;-78
2024/01/18 12:14:47;;;;;;;1.60;1.40;;;1.00;98.20;;;;;;4945789;29;21125;-76
2024/01/18 12:17:15;;;;;;;1.60;1.40;;;1.10;98.20;;;;;;4924246;29;20566;-76
2024/01/18 12:19:43;;;;;;;1.70;1.60;;;1.10;98.20;;;;;;4942692;29;20756;-76
2024/01/18 12:22:11;;;;;;;1.63;1.40;;;1.10;98.20;;;;;;4939687;28;20490;-76
2024/01/18 12:24:40;;;;;;;1.80;1.70;;;1.10;98.20;;;;;;4947089;29;20475;-78
2024/01/18 12:27:08;;;;;;;1.60;1.50;;;1.20;98.20;;;;;;4924123;28;20771;-78
2024/01/18 12:29:38;;;;;;;1.63;1.50;;;1.20;98.20;;;;;;4941107;29;21199;-77
2024/01/18 12:32:05;;;;;;;1.70;1.60;;;1.30;98.20;;;;;;4940680;28;20486;-77
2024/01/18 12:34:33;;;;;;;1.70;1.60;;;1.30;98.20;;;;;;4946384;29;20491;-78
2024/01/18 12:37:00;;;;;;;1.60;1.50;;;1.30;98.20;;;;;;4939017;28;20553;-79
2024/01/18 12:39:27;;;;;;;4.70;4.40;;;1.40;98.20;;;;;;4948733;28;20481;-78
2024/01/18 12:41:56;;;;;;;1.60;1.50;;;1.40;98.20;;;;;;4939548;28;20487;-78
2024/01/18 12:44:23;;;;;;;1.63;1.53;;;1.40;98.20;;;;;;4945883;29;20477;-78
2024/01/18 12:46:51;;;;;;;1.60;1.40;;;1.40;98.20;;;;;;4938674;28;20581;-78
2024/01/18 12:49:19;;;;;;;1.60;1.40;;;1.40;98.20;;;;;;4942211;29;20488;-79
2024/01/18 12:51:53;;;;;;;1.67;1.50;;;1.50;98.20;;;;;;4929156;28;20579;-78
2024/01/18 12:54:20;;;;;;;1.77;1.67;;;1.50;98.20;;;;;;4944626;29;20488;-78